sensor_id;sensor_type;location;lat;lon;timestamp;P1;durP1;ratioP1;P2;durP2;ratioP2
34836;SDS011;21053;50.848;4.652;2023-05-19T00:00:58;17.75;;;6.00;;
34836;SDS011;21053;50.848;4.652;2023-05-19T00:05:56;16.50;;;6.78;;
34836;SDS011;21053;50.848;4.652;2023-05-19T00:10:56;13.02;;;6.55;;
34836;SDS011;21053;50.848;4.652;2023-05-19T00:13:22;13.57;;;6.28;;
34836;SDS011;21053;50.848;4.652;2023-05-19T00:15:48;11.70;;;6.20;;
34836;SDS011;21053;50.848;4.652;2023-05-19T00:18:15;11.73;;;6.53;;
34836;SDS011;21053;50.848;4.652;2023-05-19T00:20:42;14.73;;;6.15;;
34836;SDS011;21053;50.848;4.652;2023-05-19T00:23:09;13.48;;;5.93;;
34836;SDS011;21053;50.848;4.652;2023-05-19T00:28:06;13.40;;;6.82;;
34836;SDS011;21053;50.848;4.652;2023-05-19T00:30:38;16.77;;;6.72;;
34836;SDS011;21053;50.848;4.652;2023-05-19T00:33:04;17.75;;;6.80;;
34836;SDS011;21053;50.848;4.652;2023-05-19T00:40:48;14.27;;;6.68;;
34836;SDS011;21053;50.848;4.652;2023-05-19T00:43:16;19.00;;;6.90;;
34836;SDS011;21053;50.848;4.652;2023-05-19T00:45:44;14.48;;;6.30;;
34836;SDS011;21053;50.848;4.652;2023-05-19T00:48:12;14.13;;;7.43;;
34836;SDS011;21053;50.848;4.652;2023-05-19T00:50:41;17.65;;;7.72;;
34836;SDS011;21053;50.848;4.652;2023-05-19T00:53:09;14.57;;;6.80;;
34836;SDS011;21053;50.848;4.652;2023-05-19T00:58:05;14.93;;;7.10;;
34836;SDS011;21053;50.848;4.652;2023-05-19T01:00:34;15.25;;;7.15;;
34836;SDS011;21053;50.848;4.652;2023-05-19T01:05:37;14.68;;;6.88;;
34836;SDS011;21053;50.848;4.652;2023-05-19T01:08:10;14.93;;;7.50;;
34836;SDS011;21053;50.848;4.652;2023-05-19T01:10:47;14.32;;;7.32;;
34836;SDS011;21053;50.848;4.652;2023-05-19T01:15:54;15.63;;;7.07;;
34836;SDS011;21053;50.848;4.652;2023-05-19T01:30:47;12.73;;;7.55;;
34836;SDS011;21053;50.848;4.652;2023-05-19T01:33:16;18.40;;;7.82;;
34836;SDS011;21053;50.848;4.652;2023-05-19T01:38:20;13.07;;;7.43;;
34836;SDS011;21053;50.848;4.652;2023-05-19T01:40:52;15.35;;;7.82;;
34836;SDS011;21053;50.848;4.652;2023-05-19T01:43:21;11.32;;;6.50;;
34836;SDS011;21053;50.848;4.652;2023-05-19T01:45:52;18.05;;;7.57;;
34836;SDS011;21053;50.848;4.652;2023-05-19T01:48:18;13.55;;;7.07;;
34836;SDS011;21053;50.848;4.652;2023-05-19T01:53:14;12.05;;;6.43;;
34836;SDS011;21053;50.848;4.652;2023-05-19T01:55:43;17.02;;;7.22;;
34836;SDS011;21053;50.848;4.652;2023-05-19T02:12:23;18.58;;;8.32;;
34836;SDS011;21053;50.848;4.652;2023-05-19T02:17:45;16.23;;;7.45;;
34836;SDS011;21053;50.848;4.652;2023-05-19T02:20:18;16.73;;;8.70;;
34836;SDS011;21053;50.848;4.652;2023-05-19T02:22:47;12.00;;;7.50;;
34836;SDS011;21053;50.848;4.652;2023-05-19T02:27:43;14.57;;;8.00;;
34836;SDS011;21053;50.848;4.652;2023-05-19T02:30:09;16.15;;;8.02;;
34836;SDS011;21053;50.848;4.652;2023-05-19T02:45:04;18.80;;;8.77;;
34836;SDS011;21053;50.848;4.652;2023-05-19T02:47:31;18.77;;;8.32;;
34836;SDS011;21053;50.848;4.652;2023-05-19T02:50:00;17.73;;;8.30;;
34836;SDS011;21053;50.848;4.652;2023-05-19T02:54:57;20.02;;;8.13;;
34836;SDS011;21053;50.848;4.652;2023-05-19T02:57:23;15.18;;;8.23;;
34836;SDS011;21053;50.848;4.652;2023-05-19T02:59:51;13.88;;;8.02;;
34836;SDS011;21053;50.848;4.652;2023-05-19T03:02:17;13.18;;;7.90;;
34836;SDS011;21053;50.848;4.652;2023-05-19T03:04:46;17.60;;;8.57;;
34836;SDS011;21053;50.848;4.652;2023-05-19T03:07:12;13.35;;;7.80;;
34836;SDS011;21053;50.848;4.652;2023-05-19T03:09:37;17.52;;;8.20;;
34836;SDS011;21053;50.848;4.652;2023-05-19T03:12:05;12.90;;;7.97;;
34836;SDS011;21053;50.848;4.652;2023-05-19T03:14:35;16.88;;;8.10;;
34836;SDS011;21053;50.848;4.652;2023-05-19T03:17:02;14.77;;;7.93;;
34836;SDS011;21053;50.848;4.652;2023-05-19T03:19:29;11.60;;;7.97;;
34836;SDS011;21053;50.848;4.652;2023-05-19T03:21:59;15.60;;;8.07;;
34836;SDS011;21053;50.848;4.652;2023-05-19T03:24:31;19.48;;;8.23;;
34836;SDS011;21053;50.848;4.652;2023-05-19T03:26:59;13.50;;;7.65;;
34836;SDS011;21053;50.848;4.652;2023-05-19T03:29:30;19.63;;;8.73;;
34836;SDS011;21053;50.848;4.652;2023-05-19T03:31:57;16.25;;;8.30;;
34836;SDS011;21053;50.848;4.652;2023-05-19T03:34:26;18.15;;;8.40;;
34836;SDS011;21053;50.848;4.652;2023-05-19T03:36:52;18.00;;;9.20;;
34836;SDS011;21053;50.848;4.652;2023-05-19T03:41:50;18.30;;;9.40;;
34836;SDS011;21053;50.848;4.652;2023-05-19T03:44:15;16.67;;;8.45;;
34836;SDS011;21053;50.848;4.652;2023-05-19T03:46:44;16.52;;;7.95;;
34836;SDS011;21053;50.848;4.652;2023-05-19T03:51:40;17.38;;;8.13;;
34836;SDS011;21053;50.848;4.652;2023-05-19T03:54:08;19.95;;;8.93;;
34836;SDS011;21053;50.848;4.652;2023-05-19T03:56:40;15.05;;;8.93;;
34836;SDS011;21053;50.848;4.652;2023-05-19T03:59:09;16.42;;;8.65;;
34836;SDS011;21053;50.848;4.652;2023-05-19T04:01:35;15.73;;;9.07;;
34836;SDS011;21053;50.848;4.652;2023-05-19T04:04:01;12.30;;;8.45;;
34836;SDS011;21053;50.848;4.652;2023-05-19T04:06:30;16.52;;;9.23;;
34836;SDS011;21053;50.848;4.652;2023-05-19T04:08:56;15.50;;;8.90;;
34836;SDS011;21053;50.848;4.652;2023-05-19T04:11:23;13.98;;;8.40;;
34836;SDS011;21053;50.848;4.652;2023-05-19T04:13:51;14.45;;;8.90;;
34836;SDS011;21053;50.848;4.652;2023-05-19T04:16:17;22.25;;;9.18;;
34836;SDS011;21053;50.848;4.652;2023-05-19T04:18:46;17.08;;;9.35;;
34836;SDS011;21053;50.848;4.652;2023-05-19T04:21:11;15.00;;;8.40;;
34836;SDS011;21053;50.848;4.652;2023-05-19T04:23:37;13.48;;;7.93;;
34836;SDS011;21053;50.848;4.652;2023-05-19T04:26:04;14.45;;;8.77;;
34836;SDS011;21053;50.848;4.652;2023-05-19T04:31:06;18.38;;;8.57;;
34836;SDS011;21053;50.848;4.652;2023-05-19T04:38:37;14.00;;;8.48;;
34836;SDS011;21053;50.848;4.652;2023-05-19T04:41:07;17.17;;;9.18;;
34836;SDS011;21053;50.848;4.652;2023-05-19T04:43:37;18.42;;;9.75;;
34836;SDS011;21053;50.848;4.652;2023-05-19T04:46:11;15.95;;;9.50;;
34836;SDS011;21053;50.848;4.652;2023-05-19T04:48:40;14.68;;;8.90;;
34836;SDS011;21053;50.848;4.652;2023-05-19T04:51:07;18.23;;;9.27;;
34836;SDS011;21053;50.848;4.652;2023-05-19T04:53:33;17.30;;;9.05;;
34836;SDS011;21053;50.848;4.652;2023-05-19T04:56:02;15.40;;;9.30;;
34836;SDS011;21053;50.848;4.652;2023-05-19T04:58:34;17.65;;;9.00;;
34836;SDS011;21053;50.848;4.652;2023-05-19T05:01:04;15.18;;;8.77;;
34836;SDS011;21053;50.848;4.652;2023-05-19T05:03:29;19.40;;;9.70;;
34836;SDS011;21053;50.848;4.652;2023-05-19T05:05:59;18.63;;;8.77;;
34836;SDS011;21053;50.848;4.652;2023-05-19T05:08:25;16.83;;;9.10;;
34836;SDS011;21053;50.848;4.652;2023-05-19T05:10:51;19.15;;;9.13;;
34836;SDS011;21053;50.848;4.652;2023-05-19T05:13:19;15.38;;;9.30;;
34836;SDS011;21053;50.848;4.652;2023-05-19T05:15:47;18.50;;;9.30;;
34836;SDS011;21053;50.848;4.652;2023-05-19T05:18:20;16.25;;;9.27;;
34836;SDS011;21053;50.848;4.652;2023-05-19T05:20:47;19.08;;;9.07;;
34836;SDS011;21053;50.848;4.652;2023-05-19T05:23:14;18.73;;;9.50;;
34836;SDS011;21053;50.848;4.652;2023-05-19T05:25:40;24.45;;;10.82;;
34836;SDS011;21053;50.848;4.652;2023-05-19T05:28:08;20.13;;;10.10;;
34836;SDS011;21053;50.848;4.652;2023-05-19T05:30:37;19.80;;;10.40;;
34836;SDS011;21053;50.848;4.652;2023-05-19T05:33:03;25.48;;;11.10;;
34836;SDS011;21053;50.848;4.652;2023-05-19T05:35:31;19.15;;;11.05;;
34836;SDS011;21053;50.848;4.652;2023-05-19T05:42:56;25.38;;;11.95;;
34836;SDS011;21053;50.848;4.652;2023-05-19T05:45:24;22.30;;;11.00;;
34836;SDS011;21053;50.848;4.652;2023-05-19T05:47:51;23.08;;;11.55;;
34836;SDS011;21053;50.848;4.652;2023-05-19T05:50:17;22.48;;;11.35;;
34836;SDS011;21053;50.848;4.652;2023-05-19T05:52:47;24.38;;;11.95;;
34836;SDS011;21053;50.848;4.652;2023-05-19T05:55:16;21.02;;;11.45;;
34836;SDS011;21053;50.848;4.652;2023-05-19T06:00:12;25.95;;;11.88;;
34836;SDS011;21053;50.848;4.652;2023-05-19T06:02:43;31.20;;;11.48;;
34836;SDS011;21053;50.848;4.652;2023-05-19T06:05:11;45.42;;;10.68;;
34836;SDS011;21053;50.848;4.652;2023-05-19T06:07:41;18.55;;;9.77;;
34836;SDS011;21053;50.848;4.652;2023-05-19T06:12:38;77.07;;;11.20;;
34836;SDS011;21053;50.848;4.652;2023-05-19T06:15:07;50.38;;;11.10;;
34836;SDS011;21053;50.848;4.652;2023-05-19T06:17:35;23.25;;;10.27;;
34836;SDS011;21053;50.848;4.652;2023-05-19T06:20:01;24.83;;;10.85;;
34836;SDS011;21053;50.848;4.652;2023-05-19T06:22:32;31.23;;;10.52;;
34836;SDS011;21053;50.848;4.652;2023-05-19T06:24:59;30.38;;;9.73;;
34836;SDS011;21053;50.848;4.652;2023-05-19T06:27:28;28.05;;;9.57;;
34836;SDS011;21053;50.848;4.652;2023-05-19T06:29:58;31.80;;;9.25;;
34836;SDS011;21053;50.848;4.652;2023-05-19T06:32:25;26.40;;;10.07;;
34836;SDS011;21053;50.848;4.652;2023-05-19T06:34:51;33.13;;;9.73;;
34836;SDS011;21053;50.848;4.652;2023-05-19T06:37:21;31.90;;;9.70;;
34836;SDS011;21053;50.848;4.652;2023-05-19T06:39:48;52.15;;;10.32;;
34836;SDS011;21053;50.848;4.652;2023-05-19T06:44:52;24.90;;;10.48;;
34836;SDS011;21053;50.848;4.652;2023-05-19T06:47:20;31.77;;;10.00;;
34836;SDS011;21053;50.848;4.652;2023-05-19T06:49:48;37.92;;;8.90;;
34836;SDS011;21053;50.848;4.652;2023-05-19T06:52:20;27.30;;;8.27;;
34836;SDS011;21053;50.848;4.652;2023-05-19T06:54:49;22.92;;;9.32;;
34836;SDS011;21053;50.848;4.652;2023-05-19T06:57:16;34.83;;;8.75;;
34836;SDS011;21053;50.848;4.652;2023-05-19T06:59:44;14.52;;;7.90;;
34836;SDS011;21053;50.848;4.652;2023-05-19T07:02:12;21.83;;;8.30;;
34836;SDS011;21053;50.848;4.652;2023-05-19T07:04:39;17.15;;;8.43;;
34836;SDS011;21053;50.848;4.652;2023-05-19T07:07:06;21.83;;;8.38;;
34836;SDS011;21053;50.848;4.652;2023-05-19T07:09:34;20.77;;;8.10;;
34836;SDS011;21053;50.848;4.652;2023-05-19T07:12:03;38.15;;;8.32;;
34836;SDS011;21053;50.848;4.652;2023-05-19T07:14:31;11.60;;;7.05;;
34836;SDS011;21053;50.848;4.652;2023-05-19T07:17:00;21.67;;;7.20;;
34836;SDS011;21053;50.848;4.652;2023-05-19T07:19:28;19.60;;;7.32;;
34836;SDS011;21053;50.848;4.652;2023-05-19T07:21:55;18.73;;;7.15;;
34836;SDS011;21053;50.848;4.652;2023-05-19T07:24:24;10.52;;;6.10;;
34836;SDS011;21053;50.848;4.652;2023-05-19T07:26:57;14.40;;;6.90;;
34836;SDS011;21053;50.848;4.652;2023-05-19T07:29:23;15.40;;;6.07;;
34836;SDS011;21053;50.848;4.652;2023-05-19T07:31:50;16.38;;;6.15;;
34836;SDS011;21053;50.848;4.652;2023-05-19T07:34:20;6.82;;;4.75;;
34836;SDS011;21053;50.848;4.652;2023-05-19T07:39:19;10.68;;;5.18;;
34836;SDS011;21053;50.848;4.652;2023-05-19T07:41:45;8.65;;;4.20;;
34836;SDS011;21053;50.848;4.652;2023-05-19T07:46:50;8.70;;;4.25;;
34836;SDS011;21053;50.848;4.652;2023-05-19T07:49:21;11.27;;;3.83;;
34836;SDS011;21053;50.848;4.652;2023-05-19T07:51:47;7.15;;;3.75;;
34836;SDS011;21053;50.848;4.652;2023-05-19T07:54:14;6.18;;;3.85;;
34836;SDS011;21053;50.848;4.652;2023-05-19T07:56:43;8.23;;;4.07;;
34836;SDS011;21053;50.848;4.652;2023-05-19T07:59:09;8.15;;;4.20;;
34836;SDS011;21053;50.848;4.652;2023-05-19T08:01:37;8.18;;;4.70;;
34836;SDS011;21053;50.848;4.652;2023-05-19T08:04:03;6.47;;;3.92;;
34836;SDS011;21053;50.848;4.652;2023-05-19T08:09:00;7.22;;;4.10;;
34836;SDS011;21053;50.848;4.652;2023-05-19T08:13:55;7.40;;;4.50;;
34836;SDS011;21053;50.848;4.652;2023-05-19T08:18:50;7.15;;;4.03;;
34836;SDS011;21053;50.848;4.652;2023-05-19T08:21:24;7.55;;;4.05;;
34836;SDS011;21053;50.848;4.652;2023-05-19T08:23:52;5.10;;;3.55;;
34836;SDS011;21053;50.848;4.652;2023-05-19T08:28:52;4.68;;;3.10;;
34836;SDS011;21053;50.848;4.652;2023-05-19T08:33:49;7.20;;;3.30;;
34836;SDS011;21053;50.848;4.652;2023-05-19T08:38:46;5.65;;;3.20;;
34836;SDS011;21053;50.848;4.652;2023-05-19T08:41:15;7.78;;;4.07;;
34836;SDS011;21053;50.848;4.652;2023-05-19T08:43:42;6.72;;;3.17;;
34836;SDS011;21053;50.848;4.652;2023-05-19T08:54:18;2.92;;;2.08;;
34836;SDS011;21053;50.848;4.652;2023-05-19T08:56:51;3.53;;;2.17;;
34836;SDS011;21053;50.848;4.652;2023-05-19T08:59:18;4.25;;;2.35;;
34836;SDS011;21053;50.848;4.652;2023-05-19T09:01:45;5.40;;;2.60;;
34836;SDS011;21053;50.848;4.652;2023-05-19T09:04:14;5.60;;;2.08;;
34836;SDS011;21053;50.848;4.652;2023-05-19T09:06:43;5.40;;;2.40;;
34836;SDS011;21053;50.848;4.652;2023-05-19T09:11:44;2.90;;;1.83;;
34836;SDS011;21053;50.848;4.652;2023-05-19T09:14:11;3.75;;;1.92;;
34836;SDS011;21053;50.848;4.652;2023-05-19T09:16:40;2.17;;;1.70;;
34836;SDS011;21053;50.848;4.652;2023-05-19T09:21:42;2.15;;;1.50;;
34836;SDS011;21053;50.848;4.652;2023-05-19T09:24:09;4.70;;;1.60;;
34836;SDS011;21053;50.848;4.652;2023-05-19T09:29:14;3.60;;;1.65;;
34836;SDS011;21053;50.848;4.652;2023-05-19T09:31:51;4.03;;;1.80;;
34836;SDS011;21053;50.848;4.652;2023-05-19T09:34:21;2.35;;;1.30;;
34836;SDS011;21053;50.848;4.652;2023-05-19T09:39:19;2.25;;;1.42;;
34836;SDS011;21053;50.848;4.652;2023-05-19T09:41:52;2.08;;;1.25;;
34836;SDS011;21053;50.848;4.652;2023-05-19T09:44:22;6.63;;;1.50;;
34836;SDS011;21053;50.848;4.652;2023-05-19T09:46:56;1.17;;;1.08;;
34836;SDS011;21053;50.848;4.652;2023-05-19T09:49:25;3.65;;;1.60;;
34836;SDS011;21053;50.848;4.652;2023-05-19T09:52:03;5.70;;;2.00;;
34836;SDS011;21053;50.848;4.652;2023-05-19T09:54:32;2.55;;;1.60;;
34836;SDS011;21053;50.848;4.652;2023-05-19T09:57:03;5.18;;;1.90;;
34836;SDS011;21053;50.848;4.652;2023-05-19T09:59:37;1.83;;;1.40;;
34836;SDS011;21053;50.848;4.652;2023-05-19T10:02:11;9.65;;;1.77;;
34836;SDS011;21053;50.848;4.652;2023-05-19T10:04:47;4.05;;;1.50;;
34836;SDS011;21053;50.848;4.652;2023-05-19T10:07:18;2.25;;;1.38;;
34836;SDS011;21053;50.848;4.652;2023-05-19T10:09:48;5.20;;;1.80;;
34836;SDS011;21053;50.848;4.652;2023-05-19T10:12:15;4.75;;;1.48;;
34836;SDS011;21053;50.848;4.652;2023-05-19T10:17:13;1.40;;;1.30;;
34836;SDS011;21053;50.848;4.652;2023-05-19T10:19:42;2.65;;;1.45;;
34836;SDS011;21053;50.848;4.652;2023-05-19T10:24:37;2.20;;;1.67;;
34836;SDS011;21053;50.848;4.652;2023-05-19T10:27:12;3.20;;;1.45;;
34836;SDS011;21053;50.848;4.652;2023-05-19T10:29:43;1.45;;;1.23;;
34836;SDS011;21053;50.848;4.652;2023-05-19T10:32:13;3.45;;;1.65;;
34836;SDS011;21053;50.848;4.652;2023-05-19T10:40:06;3.70;;;1.50;;
34836;SDS011;21053;50.848;4.652;2023-05-19T10:42:52;2.45;;;1.25;;
34836;SDS011;21053;50.848;4.652;2023-05-19T10:45:33;2.50;;;1.35;;
34836;SDS011;21053;50.848;4.652;2023-05-19T10:48:15;2.35;;;1.60;;
34836;SDS011;21053;50.848;4.652;2023-05-19T10:50:43;1.45;;;1.30;;
34836;SDS011;21053;50.848;4.652;2023-05-19T11:01:12;1.50;;;1.30;;
34836;SDS011;21053;50.848;4.652;2023-05-19T11:03:52;2.17;;;1.30;;
34836;SDS011;21053;50.848;4.652;2023-05-19T11:06:31;1.88;;;1.20;;
34836;SDS011;21053;50.848;4.652;2023-05-19T11:14:11;1.75;;;1.23;;
34836;SDS011;21053;50.848;4.652;2023-05-19T11:16:41;4.00;;;1.52;;
34836;SDS011;21053;50.848;4.652;2023-05-19T11:19:31;3.38;;;1.45;;
34836;SDS011;21053;50.848;4.652;2023-05-19T11:22:09;1.98;;;1.10;;
34836;SDS011;21053;50.848;4.652;2023-05-19T11:24:38;1.65;;;1.20;;
34836;SDS011;21053;50.848;4.652;2023-05-19T11:27:28;2.42;;;1.30;;
34836;SDS011;21053;50.848;4.652;2023-05-19T11:29:59;4.03;;;1.50;;
34836;SDS011;21053;50.848;4.652;2023-05-19T11:32:35;2.83;;;1.38;;
34836;SDS011;21053;50.848;4.652;2023-05-19T11:35:07;7.28;;;1.27;;
34836;SDS011;21053;50.848;4.652;2023-05-19T11:37:35;2.78;;;1.30;;
34836;SDS011;21053;50.848;4.652;2023-05-19T11:40:04;2.83;;;1.40;;
34836;SDS011;21053;50.848;4.652;2023-05-19T11:42:34;1.23;;;1.10;;
34836;SDS011;21053;50.848;4.652;2023-05-19T11:45:02;2.22;;;1.42;;
34836;SDS011;21053;50.848;4.652;2023-05-19T11:47:29;4.32;;;1.58;;
34836;SDS011;21053;50.848;4.652;2023-05-19T11:49:58;2.17;;;1.27;;
34836;SDS011;21053;50.848;4.652;2023-05-19T11:52:26;3.05;;;1.52;;
34836;SDS011;21053;50.848;4.652;2023-05-19T11:54:53;2.15;;;1.30;;
34836;SDS011;21053;50.848;4.652;2023-05-19T11:57:21;2.25;;;1.60;;
34836;SDS011;21053;50.848;4.652;2023-05-19T11:59:47;2.55;;;1.38;;
34836;SDS011;21053;50.848;4.652;2023-05-19T12:02:20;5.40;;;1.85;;
34836;SDS011;21053;50.848;4.652;2023-05-19T12:04:54;2.35;;;1.48;;
34836;SDS011;21053;50.848;4.652;2023-05-19T12:07:24;1.95;;;1.55;;
34836;SDS011;21053;50.848;4.652;2023-05-19T12:09:50;1.92;;;1.67;;
34836;SDS011;21053;50.848;4.652;2023-05-19T12:12:18;6.38;;;1.70;;
34836;SDS011;21053;50.848;4.652;2023-05-19T12:14:49;4.13;;;1.80;;
34836;SDS011;21053;50.848;4.652;2023-05-19T12:17:18;1.73;;;1.50;;
34836;SDS011;21053;50.848;4.652;2023-05-19T12:19:47;1.52;;;1.27;;
34836;SDS011;21053;50.848;4.652;2023-05-19T12:22:15;1.50;;;1.17;;
34836;SDS011;21053;50.848;4.652;2023-05-19T12:24:43;2.15;;;1.23;;
34836;SDS011;21053;50.848;4.652;2023-05-19T12:34:51;1.45;;;1.10;;
34836;SDS011;21053;50.848;4.652;2023-05-19T12:39:53;2.75;;;1.60;;
34836;SDS011;21053;50.848;4.652;2023-05-19T12:42:20;2.25;;;1.33;;
34836;SDS011;21053;50.848;4.652;2023-05-19T12:44:49;2.15;;;1.30;;
34836;SDS011;21053;50.848;4.652;2023-05-19T12:47:17;2.30;;;1.35;;
34836;SDS011;21053;50.848;4.652;2023-05-19T12:50:05;3.47;;;1.67;;
34836;SDS011;21053;50.848;4.652;2023-05-19T12:52:43;2.63;;;1.60;;
34836;SDS011;21053;50.848;4.652;2023-05-19T12:55:13;2.10;;;1.48;;
34836;SDS011;21053;50.848;4.652;2023-05-19T12:57:41;1.15;;;1.05;;
34836;SDS011;21053;50.848;4.652;2023-05-19T13:00:14;1.58;;;1.25;;
34836;SDS011;21053;50.848;4.652;2023-05-19T13:03:01;3.35;;;1.40;;
34836;SDS011;21053;50.848;4.652;2023-05-19T13:05:33;2.03;;;1.40;;
34836;SDS011;21053;50.848;4.652;2023-05-19T13:08:09;2.92;;;1.33;;
34836;SDS011;21053;50.848;4.652;2023-05-19T13:10:38;2.58;;;1.55;;
34836;SDS011;21053;50.848;4.652;2023-05-19T13:13:07;1.35;;;1.10;;
34836;SDS011;21053;50.848;4.652;2023-05-19T13:15:36;2.67;;;1.77;;
34836;SDS011;21053;50.848;4.652;2023-05-19T13:18:05;2.33;;;1.40;;
34836;SDS011;21053;50.848;4.652;2023-05-19T13:20:35;3.20;;;1.30;;
34836;SDS011;21053;50.848;4.652;2023-05-19T13:23:02;2.25;;;1.17;;
34836;SDS011;21053;50.848;4.652;2023-05-19T13:27:59;4.38;;;1.20;;
34836;SDS011;21053;50.848;4.652;2023-05-19T13:30:28;3.20;;;1.30;;
34836;SDS011;21053;50.848;4.652;2023-05-19T13:32:57;3.67;;;1.45;;
34836;SDS011;21053;50.848;4.652;2023-05-19T13:35:22;2.75;;;1.30;;
34836;SDS011;21053;50.848;4.652;2023-05-19T13:37:50;1.10;;;1.00;;
34836;SDS011;21053;50.848;4.652;2023-05-19T13:40:15;2.78;;;1.10;;
34836;SDS011;21053;50.848;4.652;2023-05-19T13:42:44;6.55;;;1.48;;
34836;SDS011;21053;50.848;4.652;2023-05-19T13:45:10;3.15;;;1.10;;
34836;SDS011;21053;50.848;4.652;2023-05-19T13:47:42;3.35;;;1.30;;
34836;SDS011;21053;50.848;4.652;2023-05-19T13:50:07;3.33;;;1.65;;
34836;SDS011;21053;50.848;4.652;2023-05-19T13:52:33;1.77;;;1.20;;
34836;SDS011;21053;50.848;4.652;2023-05-19T13:54:59;2.53;;;1.33;;
34836;SDS011;21053;50.848;4.652;2023-05-19T13:57:27;2.42;;;1.13;;
34836;SDS011;21053;50.848;4.652;2023-05-19T13:59:53;2.35;;;1.20;;
34836;SDS011;21053;50.848;4.652;2023-05-19T14:02:20;2.42;;;1.10;;
34836;SDS011;21053;50.848;4.652;2023-05-19T14:04:46;2.03;;;1.17;;
34836;SDS011;21053;50.848;4.652;2023-05-19T14:07:13;1.92;;;1.30;;
34836;SDS011;21053;50.848;4.652;2023-05-19T14:09:43;1.55;;;1.10;;
34836;SDS011;21053;50.848;4.652;2023-05-19T14:12:11;4.00;;;1.40;;
34836;SDS011;21053;50.848;4.652;2023-05-19T14:14:38;2.05;;;1.45;;
34836;SDS011;21053;50.848;4.652;2023-05-19T14:17:04;2.42;;;1.23;;
34836;SDS011;21053;50.848;4.652;2023-05-19T14:19:30;2.05;;;1.40;;
34836;SDS011;21053;50.848;4.652;2023-05-19T14:21:56;4.32;;;1.20;;
34836;SDS011;21053;50.848;4.652;2023-05-19T14:24:23;1.70;;;1.20;;
34836;SDS011;21053;50.848;4.652;2023-05-19T14:26:52;1.83;;;1.40;;
34836;SDS011;21053;50.848;4.652;2023-05-19T14:29:21;3.00;;;1.92;;
34836;SDS011;21053;50.848;4.652;2023-05-19T14:34:17;1.98;;;1.50;;
34836;SDS011;21053;50.848;4.652;2023-05-19T14:36:47;1.27;;;1.10;;
34836;SDS011;21053;50.848;4.652;2023-05-19T14:39:15;1.00;;;1.00;;
34836;SDS011;21053;50.848;4.652;2023-05-19T14:41:43;2.10;;;1.15;;
34836;SDS011;21053;50.848;4.652;2023-05-19T14:44:10;1.90;;;1.40;;
34836;SDS011;21053;50.848;4.652;2023-05-19T14:46:37;1.95;;;1.10;;
34836;SDS011;21053;50.848;4.652;2023-05-19T14:49:05;1.70;;;1.00;;
34836;SDS011;21053;50.848;4.652;2023-05-19T14:51:32;3.42;;;1.33;;
34836;SDS011;21053;50.848;4.652;2023-05-19T14:53:59;2.00;;;1.23;;
34836;SDS011;21053;50.848;4.652;2023-05-19T14:56:27;3.15;;;1.13;;
34836;SDS011;21053;50.848;4.652;2023-05-19T14:58:53;1.88;;;1.45;;
34836;SDS011;21053;50.848;4.652;2023-05-19T15:01:21;1.45;;;1.33;;
34836;SDS011;21053;50.848;4.652;2023-05-19T15:03:47;1.40;;;1.30;;
34836;SDS011;21053;50.848;4.652;2023-05-19T15:06:13;1.55;;;1.20;;
34836;SDS011;21053;50.848;4.652;2023-05-19T15:08:40;4.22;;;1.70;;
34836;SDS011;21053;50.848;4.652;2023-05-19T15:11:07;2.05;;;1.55;;
34836;SDS011;21053;50.848;4.652;2023-05-19T15:13:33;2.85;;;1.50;;
34836;SDS011;21053;50.848;4.652;2023-05-19T15:15:59;1.65;;;1.20;;
34836;SDS011;21053;50.848;4.652;2023-05-19T15:18:26;1.70;;;1.40;;
34836;SDS011;21053;50.848;4.652;2023-05-19T15:20:54;2.33;;;1.38;;
34836;SDS011;21053;50.848;4.652;2023-05-19T15:23:21;1.50;;;1.20;;
34836;SDS011;21053;50.848;4.652;2023-05-19T15:25:48;2.20;;;1.23;;
34836;SDS011;21053;50.848;4.652;2023-05-19T15:28:15;2.25;;;1.50;;
34836;SDS011;21053;50.848;4.652;2023-05-19T15:30:43;2.05;;;1.48;;
34836;SDS011;21053;50.848;4.652;2023-05-19T15:33:09;1.85;;;1.23;;
34836;SDS011;21053;50.848;4.652;2023-05-19T15:35:36;1.95;;;1.33;;
34836;SDS011;21053;50.848;4.652;2023-05-19T15:38:03;1.95;;;1.30;;
34836;SDS011;21053;50.848;4.652;2023-05-19T15:40:33;1.88;;;1.10;;
34836;SDS011;21053;50.848;4.652;2023-05-19T15:43:02;1.92;;;1.20;;
34836;SDS011;21053;50.848;4.652;2023-05-19T15:45:31;2.83;;;1.50;;
34836;SDS011;21053;50.848;4.652;2023-05-19T15:47:58;4.25;;;1.70;;
34836;SDS011;21053;50.848;4.652;2023-05-19T15:50:26;2.25;;;1.00;;
34836;SDS011;21053;50.848;4.652;2023-05-19T15:52:52;1.45;;;1.15;;
34836;SDS011;21053;50.848;4.652;2023-05-19T15:55:19;2.20;;;1.27;;
34836;SDS011;21053;50.848;4.652;2023-05-19T15:57:46;1.63;;;1.30;;
34836;SDS011;21053;50.848;4.652;2023-05-19T16:00:13;1.77;;;1.10;;
34836;SDS011;21053;50.848;4.652;2023-05-19T16:02:41;1.27;;;1.10;;
34836;SDS011;21053;50.848;4.652;2023-05-19T16:05:06;3.97;;;1.40;;
34836;SDS011;21053;50.848;4.652;2023-05-19T16:07:34;1.73;;;1.20;;
34836;SDS011;21053;50.848;4.652;2023-05-19T16:10:01;2.42;;;1.20;;
34836;SDS011;21053;50.848;4.652;2023-05-19T16:12:28;1.25;;;1.00;;
34836;SDS011;21053;50.848;4.652;2023-05-19T16:14:55;2.97;;;1.48;;
34836;SDS011;21053;50.848;4.652;2023-05-19T16:17:20;2.10;;;1.23;;
34836;SDS011;21053;50.848;4.652;2023-05-19T16:19:46;4.32;;;1.10;;
34836;SDS011;21053;50.848;4.652;2023-05-19T16:22:15;3.55;;;1.92;;
34836;SDS011;21053;50.848;4.652;2023-05-19T16:24:42;1.42;;;1.13;;
34836;SDS011;21053;50.848;4.652;2023-05-19T16:27:09;1.98;;;1.33;;
34836;SDS011;21053;50.848;4.652;2023-05-19T16:29:36;1.33;;;1.15;;
34836;SDS011;21053;50.848;4.652;2023-05-19T16:32:03;2.35;;;1.23;;
34836;SDS011;21053;50.848;4.652;2023-05-19T16:34:30;6.63;;;1.80;;
34836;SDS011;21053;50.848;4.652;2023-05-19T16:36:56;2.65;;;1.20;;
34836;SDS011;21053;50.848;4.652;2023-05-19T16:39:22;1.83;;;1.20;;
34836;SDS011;21053;50.848;4.652;2023-05-19T16:41:49;1.65;;;1.13;;
34836;SDS011;21053;50.848;4.652;2023-05-19T16:44:18;2.67;;;1.30;;
34836;SDS011;21053;50.848;4.652;2023-05-19T16:46:43;1.58;;;1.00;;
34836;SDS011;21053;50.848;4.652;2023-05-19T16:49:11;3.75;;;1.20;;
34836;SDS011;21053;50.848;4.652;2023-05-19T16:51:38;1.88;;;1.13;;
34836;SDS011;21053;50.848;4.652;2023-05-19T16:54:05;1.20;;;1.00;;
34836;SDS011;21053;50.848;4.652;2023-05-19T16:56:31;6.65;;;1.20;;
34836;SDS011;21053;50.848;4.652;2023-05-19T16:58:58;2.05;;;1.27;;
34836;SDS011;21053;50.848;4.652;2023-05-19T17:01:25;3.92;;;1.20;;
34836;SDS011;21053;50.848;4.652;2023-05-19T17:03:52;3.90;;;1.42;;
34836;SDS011;21053;50.848;4.652;2023-05-19T17:06:20;2.63;;;1.35;;
34836;SDS011;21053;50.848;4.652;2023-05-19T17:08:47;3.38;;;1.35;;
34836;SDS011;21053;50.848;4.652;2023-05-19T17:11:14;1.40;;;1.20;;
34836;SDS011;21053;50.848;4.652;2023-05-19T17:13:39;1.92;;;1.10;;
34836;SDS011;21053;50.848;4.652;2023-05-19T17:16:07;1.73;;;1.02;;
34836;SDS011;21053;50.848;4.652;2023-05-19T17:18:34;1.88;;;1.30;;
34836;SDS011;21053;50.848;4.652;2023-05-19T17:21:01;1.38;;;1.27;;
34836;SDS011;21053;50.848;4.652;2023-05-19T17:23:31;2.85;;;1.30;;
34836;SDS011;21053;50.848;4.652;2023-05-19T17:28:25;2.17;;;1.48;;
34836;SDS011;21053;50.848;4.652;2023-05-19T17:30:52;2.10;;;1.30;;
34836;SDS011;21053;50.848;4.652;2023-05-19T17:33:20;1.92;;;1.33;;
34836;SDS011;21053;50.848;4.652;2023-05-19T17:35:46;2.10;;;1.27;;
34836;SDS011;21053;50.848;4.652;2023-05-19T17:38:12;2.42;;;1.27;;
34836;SDS011;21053;50.848;4.652;2023-05-19T17:40:38;1.40;;;1.13;;
34836;SDS011;21053;50.848;4.652;2023-05-19T17:43:04;1.77;;;1.30;;
34836;SDS011;21053;50.848;4.652;2023-05-19T17:45:30;2.05;;;1.20;;